Latest Weather Observations for Oodnadatta

IDS60801

Issued at 6:05 pm CST Monday 21 April 2014 (issued every 30 minutes, with the page automatically refreshed every 10 minutes)

About weather observations | Map of weather stations | Latest weather observations for SA | Other Formats
Station Details ID: 017043 Name: OODNADATTA AIRPORT Lat: -27.56 Lon: 135.45 Height: 116.5 m
Data from the previous 72 hours. | See also: Recent months at Oodnadatta
Date/Time
CST
Temp
°C
App
Temp
°C
Dew
Point
Rel
Hum
%
Delta-T
°C
Wind Press
QNH
hPa
Press
MSL
hPa
Rain
since 9 am
mm
Dir
 
Spd
km/h
Gust
km/h
Spd
kts
Gust
kts
21/06:00pm 28.2 23.9 3.1 20 12.6 N 15 20 8 11 1014.4 1014.0 0.0
21/05:30pm 29.3 24.6 3.3 19 13.1 N 17 24 9 13 1014.1 - 0.0
21/05:00pm 29.6 23.6 3.5 19 13.3 N 24 33 13 18 1013.9 - 0.0
21/04:30pm 30.1 25.0 3.2 18 13.6 N 19 33 10 18 1013.9 - 0.0
21/04:00pm 30.5 25.5 3.5 18 13.8 N 19 32 10 17 1014.2 - 0.0
21/03:30pm 29.9 24.9 3.8 19 13.4 N 19 24 10 13 1014.2 - 0.0
21/03:00pm 30.6 25.4 3.6 18 13.8 NW 20 32 11 17 1014.4 1014.0 0.0
21/02:30pm 30.4 25.3 4.2 19 13.5 N 20 37 11 20 1014.7 - 0.0
21/02:00pm 29.9 25.3 3.8 19 13.4 NNW 17 41 9 22 1014.9 - 0.0
21/01:30pm 30.3 24.2 4.9 20 13.3 N 26 39 14 21 1015.1 - 0.0
21/01:00pm 30.0 23.9 4.6 20 13.2 NNE 26 33 14 18 1015.5 - 0.0
21/12:30pm 29.1 23.0 4.6 21 12.7 NNW 26 33 14 18 1016.2 - 0.0
21/12:00pm 29.6 23.7 5.6 22 12.6 N 26 37 14 20 1017.0 1016.6 0.0
21/11:30am 29.0 23.3 5.1 22 12.4 N 24 35 13 19 1017.6 - 0.0
21/11:00am 28.4 22.7 6.5 25 11.6 N 26 33 14 18 1018.0 - 0.0
21/10:30am 27.2 21.7 6.0 26 11.1 N 24 32 13 17 1018.3 - 0.0
21/10:00am 26.6 21.5 6.1 27 10.7 N 22 30 12 16 1018.3 - 0.0
21/09:30am 25.9 20.9 6.5 29 10.2 N 22 28 12 15 1018.3 - 0.0
21/09:00am 24.8 21.3 7.0 32 9.3 NNE 15 22 8 12 1018.3 1018.0 0.0
21/08:30am 21.3 19.7 7.9 42 7.0 N 6 9 3 5 1018.3 - 0.0
21/08:00am 18.1 17.5 7.2 49 5.5 CALM 0 2 0 1 1018.0 - 0.0
21/07:30am 16.3 14.3 7.0 54 4.6 WNW 7 11 4 6 1017.9 - 0.0
21/07:00am 15.9 13.9 6.9 55 4.5 WNW 7 11 4 6 1017.7 - 0.0
21/06:30am 15.7 13.6 6.7 55 4.4 N 7 9 4 5 1017.2 - 0.0
21/06:00am 16.3 14.2 6.7 53 4.7 NW 7 9 4 5 1017.0 1016.6 0.0
21/05:30am 16.5 14.6 6.6 52 4.9 NW 6 9 3 5 1016.9 - 0.0
21/05:00am 17.1 16.4 6.9 51 5.1 CALM 0 0 0 0 1016.8 - 0.0
21/04:30am 16.6 14.5 6.7 52 4.9 NW 7 9 4 5 1016.7 - 0.0
21/04:00am 18.3 17.1 6.5 46 5.9 NNW 2 7 1 4 1016.4 - 0.0
21/03:30am 19.2 16.6 6.3 43 6.5 N 9 11 5 6 1016.3 - 0.0
21/03:00am 20.8 17.1 6.4 39 7.3 N 15 20 8 11 1016.7 1016.3 0.0
21/02:30am 21.1 17.4 6.2 38 7.5 N 15 20 8 11 1016.8 - 0.0
21/02:00am 21.0 16.5 6.2 38 7.5 NNE 19 22 10 12 1016.6 - 0.0
21/01:30am 21.4 16.8 6.5 38 7.6 NNE 20 24 11 13 1016.8 - 0.0
21/01:00am 21.4 17.0 6.5 38 7.6 NNE 19 20 10 11 1016.8 - 0.0
21/12:30am 21.7 17.6 6.4 37 7.8 NNE 17 19 9 10 1016.9 - 0.0
21/12:00am 22.4 17.9 6.2 35 8.2 NNE 19 22 10 12 1016.8 1016.4 0.0
 
Date/Time
CST
Temp
°C
App
Temp
°C
Dew
Point
Rel
Hum
%
Delta-T
°C
Wind Press
QNH
hPa
Press
MSL
hPa
Rain
since 9 am
mm
Dir
 
Spd
km/h
Gust
km/h
Spd
kts
Gust
kts
20/11:30pm 22.5 17.5 6.3 35 8.3 NNE 22 26 12 14 1016.8 - 0.0
20/11:00pm 23.0 18.4 6.3 34 8.6 NNE 20 24 11 13 1017.2 - 0.0
20/10:30pm 23.6 19.2 6.4 33 8.9 NNE 19 24 10 13 1017.5 - 0.0
20/10:00pm 24.2 19.7 6.0 31 9.4 NNE 19 22 10 12 1017.4 - 0.0
20/09:30pm 24.2 19.7 6.0 31 9.4 NNE 19 22 10 12 1017.2 - 0.0
20/09:00pm 24.6 20.8 5.9 30 9.6 NNE 15 17 8 9 1017.0 1016.6 0.0
20/08:30pm 25.3 21.4 5.5 28 10.1 NNE 15 19 8 10 1016.8 - 0.0
20/08:00pm 25.5 22.1 5.7 28 10.2 NNE 13 17 7 9 1016.5 - 0.0
20/07:30pm 26.7 23.2 5.6 26 10.9 NNE 13 13 7 7 1016.4 - 0.0
20/07:00pm 27.9 24.4 5.5 24 11.7 NNE 13 17 7 9 1016.2 - 0.0
20/06:30pm 27.8 25.1 5.4 24 11.6 NNE 9 11 5 6 1015.9 - 0.0
20/06:00pm 28.7 25.1 4.9 22 12.3 NE 13 17 7 9 1015.5 1015.1 0.0
20/05:30pm 29.4 26.5 4.8 21 12.8 N 9 13 5 7 1015.4 - 0.0
20/05:00pm 29.7 27.5 5.1 21 12.9 N 6 15 3 8 1015.5 - 0.0
20/04:30pm 30.0 27.2 5.3 21 13.0 ENE 9 17 5 9 1015.4 - 0.0
20/04:00pm 30.1 27.6 4.7 20 13.2 N 7 17 4 9 1015.4 - 0.0
20/03:30pm 30.1 27.4 5.4 21 13.0 NE 9 26 5 14 1015.5 - 0.0
20/03:00pm 29.9 27.5 5.2 21 12.9 W 7 11 4 6 1015.7 1015.3 0.0
20/02:30pm 29.6 26.0 5.0 21 12.8 NNE 13 22 7 12 1015.9 - 0.0
20/02:00pm 29.6 26.5 5.6 22 12.6 E 11 19 6 10 1016.1 - 0.0
20/01:30pm 29.7 26.8 6.4 23 12.5 ENE 11 19 6 10 1016.6 - 0.0
20/01:00pm 29.0 26.3 5.8 23 12.2 ESE 9 15 5 8 1017.1 - 0.0
20/12:30pm 28.7 25.3 6.1 24 11.9 N 13 20 7 11 1017.6 - 0.0
20/12:00pm 28.5 24.5 6.6 25 11.6 NNW 17 28 9 15 1018.1 1017.8 0.0
20/11:30am 29.0 24.7 7.0 25 11.8 N 19 24 10 13 1018.6 - 0.0
20/11:00am 27.8 23.5 7.1 27 11.1 N 19 24 10 13 1018.9 - 0.0
20/10:30am 27.7 23.8 7.0 27 11.1 N 17 22 9 12 1019.2 - 0.0
20/10:00am 26.7 22.8 7.2 29 10.4 N 17 24 9 13 1019.3 - 0.0
20/09:30am 25.1 21.3 7.7 33 9.3 N 17 22 9 12 1019.3 - 0.0
20/09:00am 23.8 20.5 8.2 37 8.3 NW 15 19 8 10 1019.3 1019.0 0.0
20/08:30am 21.7 18.9 8.6 43 7.0 NNW 13 17 7 9 1019.1 - 0.0
20/08:00am 18.8 16.8 8.7 52 5.3 NNW 9 13 5 7 1018.9 - 0.0
20/07:30am 16.7 13.4 7.9 56 4.5 NW 15 17 8 9 1018.6 - 0.0
20/07:00am 16.3 13.4 8.0 58 4.2 NNW 13 15 7 8 1018.2 - 0.0
20/06:30am 16.5 13.5 7.7 56 4.4 NW 13 13 7 7 1017.9 - 0.0
20/06:00am 17.5 15.3 7.8 53 4.9 NW 9 11 5 6 1017.7 1017.4 0.0
20/05:30am 16.4 14.1 7.6 56 4.4 WNW 9 11 5 6 1017.5 - 0.0
20/05:00am 17.3 15.0 7.6 53 4.9 WNW 9 11 5 6 1017.2 - 0.0
20/04:30am 17.4 16.9 7.7 53 4.9 CALM 0 0 0 0 1017.1 - 0.0
20/04:00am 17.7 17.2 7.7 52 5.1 CALM 0 0 0 0 1017.0 - 0.0
20/03:30am 17.9 17.3 7.6 51 5.2 CALM 0 0 0 0 1017.1 - 0.0
20/03:00am 18.2 16.3 7.6 50 5.4 WNW 7 7 4 4 1017.0 1016.6 0.0
20/02:30am 20.5 17.5 7.5 43 6.7 N 13 19 7 10 1017.1 - 0.0
20/02:00am 19.3 17.4 7.7 47 6.0 N 7 9 4 5 1017.2 - 0.0
20/01:30am 21.2 18.5 7.4 41 7.1 N 11 17 6 9 1017.3 - 0.0
20/01:00am 22.1 17.8 7.1 38 7.8 N 19 22 10 12 1017.3 - 0.0
20/12:30am 22.1 18.6 7.1 38 7.8 N 15 19 8 10 1017.4 - 0.0
20/12:00am 22.3 18.8 7.3 38 7.8 N 15 19 8 10 1017.5 1017.1 0.0
 
Date/Time
CST
Temp
°C
App
Temp
°C
Dew
Point
Rel
Hum
%
Delta-T
°C
Wind Press
QNH
hPa
Press
MSL
hPa
Rain
since 9 am
mm
Dir
 
Spd
km/h
Gust
km/h
Spd
kts
Gust
kts
19/11:30pm 22.7 18.8 7.3 37 8.0 N 17 20 9 11 1017.5 - 0.0
19/11:00pm 23.0 20.0 7.5 37 8.1 N 13 19 7 10 1017.9 - 0.0
19/10:30pm 22.2 19.9 7.6 39 7.6 N 9 11 5 6 1018.1 - 0.0
19/10:00pm 22.6 20.3 7.6 38 7.9 N 9 11 5 6 1018.0 - 0.0
19/09:30pm 22.7 20.1 7.7 38 7.9 N 11 13 6 7 1018.0 - 0.0
19/09:00pm 24.0 21.6 7.2 34 8.8 ENE 9 11 5 6 1017.9 1017.6 0.0
19/08:30pm 24.3 23.2 7.0 33 9.1 ENE 2 9 1 5 1017.9 - 0.0
19/08:00pm 24.8 23.2 7.9 34 9.0 S 6 9 3 5 1017.7 - 0.0
19/07:30pm 26.0 25.2 6.6 29 10.2 CALM 0 0 0 0 1017.4 - 0.0
19/07:00pm 27.0 26.2 6.4 27 10.8 CALM 0 0 0 0 1017.2 - 0.0
19/06:30pm 27.4 25.9 6.8 27 10.9 E 4 6 2 3 1017.0 - 0.0
19/06:00pm 28.1 25.5 6.2 25 11.5 ESE 9 11 5 6 1016.8 1016.4 0.0
19/05:30pm 28.9 26.3 6.3 24 12.0 ENE 9 11 5 6 1016.7 - 0.0
19/05:00pm 29.2 26.2 6.0 23 12.3 ENE 11 20 6 11 1016.7 - 0.0
19/04:30pm 29.4 27.3 6.7 24 12.2 E 7 11 4 6 1016.6 - 0.0
19/04:00pm 29.7 27.2 6.4 23 12.5 N 9 13 5 7 1016.6 - 0.0
19/03:30pm 29.6 27.0 6.3 23 12.4 NNW 9 15 5 8 1016.7 - 0.0
19/03:00pm 29.2 27.1 6.6 24 12.1 NE 7 13 4 7 1016.9 1016.5 0.0
19/02:30pm 29.2 27.1 6.6 24 12.1 SE 7 11 4 6 1017.1 - 0.0
19/02:00pm 28.9 25.6 6.3 24 12.0 ENE 13 22 7 12 1017.4 - 0.0
19/01:30pm 28.8 26.4 6.8 25 11.8 W 9 17 5 9 1017.9 - 0.0
19/01:00pm 28.9 26.6 7.5 26 11.6 SE 9 17 5 9 1018.6 - 0.0
19/12:30pm 28.3 24.9 7.5 27 11.2 NE 15 24 8 13 1019.2 - 0.0
19/12:00pm 27.8 25.4 8.6 30 10.5 NNW 11 19 6 10 1019.9 1019.5 0.0
19/11:30am 27.2 23.9 8.1 30 10.4 N 15 22 8 12 1020.5 - 0.0
19/11:00am 27.1 24.4 9.0 32 10.0 N 13 20 7 11 1020.9 - 0.0
19/10:30am 26.3 22.4 8.8 33 9.6 N 19 24 10 13 1021.2 - 0.0
19/10:00am 25.5 21.7 8.9 35 9.0 NNE 19 26 10 14 1021.4 - 0.0
19/09:30am 25.0 20.5 8.5 35 8.9 NNE 22 30 12 16 1021.5 - 0.0
19/09:00am 24.2 20.3 8.6 37 8.4 NE 19 24 10 13 1021.3 1020.9 0.0
19/08:30am 20.4 18.9 9.3 49 5.9 NNW 7 7 4 4 1021.2 - 0.0
19/08:00am 18.2 17.8 8.2 52 5.2 CALM 0 0 0 0 1021.1 - 0.0
19/07:30am 16.5 15.3 8.2 58 4.2 SW 4 6 2 3 1020.8 - 0.0
19/07:00am 17.6 15.5 8.2 54 4.8 NE 9 15 5 8 1020.5 - 0.0
19/06:30am 16.3 13.4 8.3 59 4.1 ENE 13 17 7 9 1020.3 - 0.0
19/06:00am 15.9 12.7 8.4 61 3.8 E 15 20 8 11 1020.2 1019.8 0.0
19/05:30am 15.8 15.4 8.1 60 3.9 CALM 0 11 0 6 1020.1 - 0.0
19/05:00am 17.4 16.9 8.0 54 4.8 CALM 0 0 0 0 1019.7 - 0.0
19/04:30am 15.3 13.8 8.3 63 3.6 ESE 6 13 3 7 1019.6 - 0.0
19/04:00am 16.8 15.2 8.0 56 4.5 S 6 7 3 4 1019.5 - 0.0
19/03:30am 16.8 15.2 8.2 57 4.4 N 6 7 3 4 1019.5 - 0.0
19/03:00am 17.9 16.0 7.6 51 5.2 N 7 7 4 4 1019.6 1019.3 0.0
19/02:30am 17.8 16.2 7.8 52 5.1 N 6 7 3 4 1019.9 - 0.0
19/02:00am 17.5 15.9 8.1 54 4.8 N 6 6 3 3 1019.9 - 0.0
19/01:30am 18.8 17.2 7.9 49 5.6 NE 6 7 3 4 1020.1 - 0.0
19/01:00am 20.3 17.1 7.0 42 6.8 NNE 13 15 7 8 1020.3 - 0.0
19/12:30am 19.7 17.1 7.8 46 6.1 N 11 20 6 11 1020.4 - 0.0
19/12:00am 20.3 18.3 7.0 42 6.8 W 7 7 4 4 1020.4 1020.0 0.0
 
Date/Time
CST
Temp
°C
App
Temp
°C
Dew
Point
Rel
Hum
%
Delta-T
°C
Wind Press
QNH
hPa
Press
MSL
hPa
Rain
since 9 am
mm
Dir
 
Spd
km/h
Gust
km/h
Spd
kts
Gust
kts
18/11:30pm 20.0 18.6 7.4 44 6.5 WSW 4 6 2 3 1020.7 - 0.0
18/11:00pm 20.1 19.5 7.5 44 6.5 CALM 0 0 0 0 1020.9 - 0.0
18/10:30pm 21.5 20.0 6.6 38 7.6 S 4 6 2 3 1021.0 - 0.0
18/10:00pm 20.9 18.9 7.2 41 7.1 S 7 9 4 5 1021.1 - 0.0
18/09:30pm 21.1 20.4 7.0 40 7.2 CALM 0 0 0 0 1021.1 - 0.0
18/09:00pm 22.4 20.5 7.4 38 7.8 E 7 9 4 5 1020.9 1020.5 0.0
18/08:30pm 23.2 20.8 6.9 35 8.5 E 9 11 5 6 1020.6 - 0.0
18/08:00pm 24.1 21.6 6.4 32 9.2 E 9 11 5 6 1020.5 - 0.0
18/07:30pm 24.0 21.8 6.3 32 9.1 ESE 7 7 4 4 1020.3 - 0.0
18/07:00pm 24.6 21.6 5.9 30 9.6 ESE 11 13 6 7 1020.0 - 0.0
18/06:30pm 25.8 22.3 5.4 27 10.5 ESE 13 13 7 7 1019.6 - 0.0

Other Formats:

Comma delimited format used in spreadsheet applications
http://www.bom.gov.au/fwo/IDS60801/IDS60801.94476.axf

JavaScript Object Notation format (JSON) in row-major order
http://www.bom.gov.au/fwo/IDS60801/IDS60801.94476.json